createdAt,value
2023-05-14T00:03:37.320Z,10.18
2023-05-14T00:08:37.517Z,10.12
2023-05-14T00:13:36.674Z,10.07
2023-05-14T00:18:37.481Z,10.06
2023-05-14T00:23:34.884Z,9.93
2023-05-14T00:28:34.608Z,9.91
2023-05-14T00:33:34.407Z,9.91
2023-05-14T00:38:34.206Z,9.82
2023-05-14T00:43:32.199Z,9.75
2023-05-14T00:48:31.781Z,9.67
2023-05-14T00:53:31.844Z,9.58
2023-05-14T00:58:31.372Z,9.56
2023-05-14T00:59:52.967Z,9.55
2023-05-14T01:04:52.422Z,9.47
2023-05-14T01:09:52.240Z,9.42
2023-05-14T01:19:52.013Z,9.3
2023-05-14T01:29:49.093Z,9.18
2023-05-14T01:34:49.107Z,9.14
2023-05-14T01:39:48.713Z,9.1
2023-05-14T01:44:46.792Z,9.04
2023-05-14T01:49:46.607Z,9.02
2023-05-14T01:54:45.937Z,9.02
2023-05-14T01:59:12.830Z,8.97
2023-05-14T02:04:10.622Z,8.88
2023-05-14T02:09:20.814Z,8.83
2023-05-14T02:14:20.469Z,8.75
2023-05-14T02:19:20.729Z,8.66
2023-05-14T02:24:20.749Z,8.55
2023-05-14T02:29:19.975Z,8.5
2023-05-14T02:34:21.412Z,8.52
2023-05-14T02:39:17.982Z,8.52
2023-05-14T02:44:17.563Z,8.45
2023-05-14T02:49:18.526Z,8.39
2023-05-14T02:54:15.302Z,8.29
2023-05-14T02:58:51.288Z,8.21
2023-05-14T03:03:50.522Z,8.17
2023-05-14T03:08:51.264Z,8.18
2023-05-14T03:13:48.940Z,8.1
2023-05-14T03:18:48.395Z,8.14
2023-05-14T03:23:48.362Z,8.17
2023-05-14T03:28:47.613Z,8.22
2023-05-14T03:33:47.254Z,8.28
2023-05-14T03:38:46.909Z,8.28
2023-05-14T03:43:46.353Z,8.32
2023-05-14T03:48:47.291Z,8.35
2023-05-14T03:53:44.792Z,8.37
2023-05-14T03:58:44.859Z,8.43
2023-05-14T04:03:44.267Z,8.47
2023-05-14T04:08:43.603Z,8.54
2023-05-14T04:13:43.108Z,8.63
2023-05-14T04:18:42.826Z,8.72
2023-05-14T04:23:41.869Z,8.88
2023-05-14T04:28:42.599Z,9.05
2023-05-14T04:33:39.942Z,9.25
2023-05-14T04:38:39.671Z,9.43
2023-05-14T04:43:39.906Z,9.58
2023-05-14T04:48:39.275Z,9.71
2023-05-14T04:53:37.763Z,9.87
2023-05-14T04:58:38.326Z,9.97
2023-05-14T04:59:59.962Z,10.01
2023-05-14T05:09:57.974Z,10.25
2023-05-14T05:19:56.886Z,10.59
2023-05-14T05:29:54.900Z,10.91
2023-05-14T05:39:54.907Z,11.23
2023-05-14T05:58:55.526Z,11.73
2023-05-14T06:03:54.678Z,11.88
2023-05-14T06:08:55.345Z,12.02
2023-05-14T06:13:52.759Z,12.18
2023-05-14T06:18:52.784Z,12.34
2023-05-14T06:23:52.632Z,12.46
2023-05-14T06:28:52.133Z,12.66
2023-05-14T06:33:50.381Z,12.85
2023-05-14T06:38:50.175Z,13.06
2023-05-14T06:43:51.624Z,13.26
2023-05-14T06:48:49.132Z,13.49
2023-05-14T06:53:48.882Z,13.75
2023-05-14T06:58:48.900Z,14
2023-05-14T07:03:48.435Z,14.26
2023-05-14T07:08:49.336Z,14.6
2023-05-14T07:13:46.958Z,14.89
2023-05-14T07:18:46.799Z,15.08
2023-05-14T07:23:46.795Z,15.32
2023-05-14T07:28:46.554Z,15.55
2023-05-14T07:33:45.105Z,16.04
2023-05-14T07:38:44.830Z,16.39
2023-05-14T07:43:44.855Z,16.7
2023-05-14T07:48:44.516Z,16.81
2023-05-14T07:53:43.877Z,16.85
2023-05-14T07:58:43.445Z,16.91
2023-05-14T08:03:43.293Z,17.17
2023-05-14T08:08:42.592Z,17.39
2023-05-14T08:13:40.753Z,17.59
2023-05-14T08:18:40.389Z,17.93
2023-05-14T08:23:40.490Z,18.69
2023-05-14T08:28:40.112Z,19.21
2023-05-14T08:33:39.528Z,19.42
2023-05-14T08:38:39.099Z,19.57
2023-05-14T08:43:39.346Z,19.76
2023-05-14T08:48:38.732Z,20.32
2023-05-14T08:53:39.774Z,21.05
2023-05-14T08:58:37.449Z,21.64
2023-05-14T09:45:48.787Z,21.67
2023-05-14T09:49:57.080Z,21.42
2023-05-14T09:59:12.704Z,21.68
2023-05-14T10:04:11.820Z,21.8
2023-05-14T10:09:11.225Z,21.79
2023-05-14T10:14:11.163Z,21.66
2023-05-14T10:19:10.553Z,21.69
2023-05-14T10:24:21.539Z,21.65
2023-05-14T10:29:18.568Z,21.65
2023-05-14T10:34:18.064Z,21.75
2023-05-14T10:39:19.233Z,22.14
2023-05-14T10:44:16.357Z,22.32
2023-05-14T10:49:19.314Z,22.21
2023-05-14T10:54:16.481Z,22.03
2023-05-14T10:58:55.201Z,22.09
2023-05-14T11:03:53.413Z,22.22
2023-05-14T11:08:52.164Z,22.27
2023-05-14T11:13:51.853Z,21.78
2023-05-14T11:18:50.261Z,21.5
2023-05-14T11:23:49.893Z,22.03
2023-05-14T11:28:49.911Z,22.22
2023-05-14T11:33:50.534Z,22.2
2023-05-14T11:38:47.621Z,22.4
2023-05-14T11:43:47.505Z,22.91
2023-05-14T11:48:47.594Z,23.15
2023-05-14T11:53:47.182Z,23.1
2023-05-14T11:58:45.726Z,23.55
2023-05-14T12:03:45.524Z,23.63
2023-05-14T12:08:45.339Z,23.94
2023-05-14T12:13:44.765Z,24.06
2023-05-14T12:18:44.181Z,24.21
2023-05-14T12:23:43.708Z,23.88
2023-05-14T12:28:43.830Z,23.65
2023-05-14T12:33:43.056Z,23.27
2023-05-14T12:38:43.770Z,23.47
2023-05-14T12:43:41.246Z,23.04
2023-05-14T12:48:41.131Z,22.38
2023-05-14T12:53:41.032Z,22.39
2023-05-14T12:58:40.521Z,22.84
2023-05-14T13:03:38.916Z,23.18
2023-05-14T13:08:40.128Z,23.41
2023-05-14T13:13:38.622Z,23.56
2023-05-14T13:18:39.662Z,23.63
2023-05-14T13:23:36.619Z,23.68
2023-05-14T13:28:36.392Z,23.53
2023-05-14T13:33:36.368Z,23.37
2023-05-14T13:38:35.833Z,23.19
2023-05-14T13:43:34.289Z,23.25
2023-05-14T13:48:33.758Z,22.79
2023-05-14T13:53:33.799Z,22.65
2023-05-14T13:58:33.320Z,22.73
2023-05-14T13:59:55.051Z,22.81
2023-05-14T14:04:54.329Z,22.96
2023-05-14T14:09:54.490Z,22.88
2023-05-14T14:14:53.760Z,22.67
2023-05-14T14:19:56.503Z,22.19
2023-05-14T14:24:51.029Z,21.8
2023-05-14T14:29:50.766Z,21.56
2023-05-14T14:34:49.804Z,21.32
2023-05-14T14:39:50.561Z,21.23
2023-05-14T14:44:47.567Z,21.04
2023-05-14T14:49:47.827Z,21.02
2023-05-14T14:59:11.223Z,20.86
2023-05-14T15:04:10.820Z,20.87
2023-05-14T15:09:10.724Z,20.99
2023-05-14T15:14:20.499Z,21.08
2023-05-14T15:19:19.955Z,21.18
2023-05-14T15:24:20.506Z,21.3
2023-05-14T15:29:19.867Z,21.39
2023-05-14T15:34:21.410Z,21.39
2023-05-14T15:39:18.357Z,21.45
2023-05-14T15:44:17.917Z,21.47
2023-05-14T15:49:19.074Z,21.5
2023-05-14T15:54:15.844Z,21.51
2023-05-14T15:58:50.864Z,21.46
2023-05-14T16:03:50.123Z,21.31
2023-05-14T16:08:50.667Z,21.15
2023-05-14T16:13:48.063Z,21.08
2023-05-14T16:18:47.910Z,21.04
2023-05-14T16:23:47.947Z,21
2023-05-14T16:28:47.091Z,20.95
2023-05-14T16:33:46.342Z,20.72
2023-05-14T16:38:57.118Z,20.19
2023-05-14T16:43:45.602Z,19.87
2023-05-14T16:48:46.497Z,19.57
2023-05-14T16:53:43.597Z,19.32
2023-05-14T16:58:43.216Z,19.15
2023-05-14T17:03:42.292Z,19
2023-05-14T17:08:41.746Z,18.92
2023-05-14T17:13:40.238Z,18.79
2023-05-14T17:18:40.042Z,18.62
2023-05-14T17:23:40.178Z,18.48
2023-05-14T17:28:39.388Z,18.37
2023-05-14T17:33:38.704Z,18.29
2023-05-14T17:38:37.876Z,18.25
2023-05-14T17:43:37.524Z,18.25
2023-05-14T17:48:36.626Z,18.25
2023-05-14T17:53:37.355Z,18.24
2023-05-14T17:58:34.688Z,18.2
2023-05-14T17:59:55.625Z,18.2
2023-05-14T18:04:54.613Z,18.2
2023-05-14T18:09:54.205Z,18.12
2023-05-14T18:14:53.687Z,18.01
2023-05-14T18:19:53.548Z,17.9
2023-05-14T18:24:52.824Z,17.94
2023-05-14T18:29:53.581Z,17.87
2023-05-14T18:34:51.011Z,17.76
2023-05-14T18:39:50.835Z,17.6
2023-05-14T18:44:49.954Z,17.45
2023-05-14T18:49:49.524Z,17.35
2023-05-14T18:54:48.092Z,17.23
2023-05-14T18:58:56.917Z,17.14
2023-05-14T19:03:56.982Z,17.02
2023-05-14T19:08:56.368Z,16.89
2023-05-14T19:13:55.668Z,16.77
2023-05-14T19:18:54.839Z,16.62
2023-05-14T19:23:54.458Z,16.44
2023-05-14T19:28:53.690Z,16.26
2023-05-14T19:33:54.481Z,15.98
2023-05-14T19:38:51.426Z,15.57
2023-05-14T19:43:51.365Z,15.11
2023-05-14T19:48:50.650Z,14.93
2023-05-14T19:53:49.840Z,14.88
2023-05-14T19:58:49.301Z,14.83
2023-05-14T20:03:49.228Z,14.78
2023-05-14T20:08:48.359Z,14.69
2023-05-14T20:13:46.930Z,14.61
2023-05-14T20:18:46.498Z,14.53
2023-05-14T20:23:46.524Z,14.54
2023-05-14T20:28:46.051Z,14.57
2023-05-14T20:33:45.241Z,14.57
2023-05-14T20:38:44.719Z,14.57
2023-05-14T20:43:44.454Z,14.55
2023-05-14T20:48:44.083Z,14.54
2023-05-14T20:53:44.792Z,14.52
2023-05-14T20:58:41.910Z,14.5
2023-05-14T21:03:41.639Z,14.44
2023-05-14T21:08:41.692Z,14.3
2023-05-14T21:13:41.245Z,14.24
2023-05-14T21:18:41.054Z,14.19
2023-05-14T21:23:40.555Z,14.17
2023-05-14T21:28:39.813Z,14.21
2023-05-14T21:33:40.484Z,14.2
2023-05-14T21:38:37.884Z,14.21
2023-05-14T21:43:37.974Z,14.23
2023-05-14T21:48:37.027Z,14.23
2023-05-14T21:53:36.471Z,14.26
2023-05-14T21:58:35.055Z,14.25
2023-05-14T22:44:51.290Z,13.84
2023-05-14T22:49:51.359Z,13.78
2023-05-14T22:59:11.630Z,13.58
2023-05-14T23:04:11.927Z,13.49
2023-05-14T23:09:11.191Z,13.38
2023-05-14T23:14:10.638Z,13.26
2023-05-14T23:19:20.594Z,13.12
2023-05-14T23:24:19.708Z,12.96
2023-05-14T23:29:20.865Z,12.85
2023-05-14T23:34:17.670Z,12.78
2023-05-14T23:39:18.078Z,12.65
2023-05-14T23:44:17.983Z,12.45
2023-05-14T23:49:15.963Z,12.26
2023-05-14T23:54:15.979Z,12.16
2023-05-14T23:58:53.424Z,12.06
